Sandy Ridge, Pennsylvania
Current Conditions -  °F | °C
As of 7:54 AM on Friday 31 Oct 2014 (Local Time) from KFIG Reporting Station
Overcast Overcast  
Wind Chill: 36°   Ceiling: 4700
Heat Index: 39°   Visibility: 10mi
Dew Point: 35°   Wind: 5mph
Humidity: 86%   Direction: 40°NE
Pressure: 29.97"   Gusts: NA
Location:  40.81°N, 78.24°W
Report Text: KFIG 311154Z AUTO 04004KT 10SM FEW029 OVC047 04/02 A2997 RMK AO2 SLP156 T00390017 10056 20039 55003
Loading
Personal Weather Stations






























Interactive Weather Map
Tropical Storm Tracking
New forecast layout! Learn more

10-Day Weather Forecast

Advertisements
Track Severe Weather on mobile